Time;durP1;ratioP1;P1;durP2;ratioP2;P2;SDS_P1;SDS_P2;PMS_P1;PMS_P2;Temp;Humidity;BMP_temperature;BMP_pressure;BME280_temperature;BME280_humidity;BME280_pressure;Samples;Min_cycle;Max_cycle;Signal;HPM_P1;HPM_P2
2023/03/28 00:01:45;;;;;;;8.57;1.88;;;1.20;99.90;;;;;;4681245;28;9999889;-71
2023/03/28 00:04:21;;;;;;;8.50;1.70;;;1.20;99.90;;;;;;5021975;28;20110;-71
2023/03/28 00:06:56;;;;;;;12.25;1.60;;;1.30;99.90;;;;;;5027595;28;20049;-71
2023/03/28 00:09:24;;;;;;;8.75;1.45;;;1.30;99.90;;;;;;5031991;28;20034;-70
2023/03/28 00:11:58;;;;;;;7.85;1.65;;;1.30;99.90;;;;;;5029655;28;20262;-70
2023/03/28 00:14:24;;;;;;;9.52;1.70;;;1.40;99.90;;;;;;5018128;28;20044;-70
2023/03/28 00:16:56;;;;;;;9.98;1.42;;;1.40;99.90;;;;;;5012137;28;20666;-70
2023/03/28 00:19:21;;;;;;;8.27;1.65;;;1.30;99.90;;;;;;5014731;28;20094;-71
2023/03/28 00:21:56;;;;;;;7.63;1.40;;;1.30;99.90;;;;;;5012995;28;20514;-71
2023/03/28 00:24:22;;;;;;;5.07;1.45;;;1.30;99.90;;;;;;5019876;28;20175;-70
2023/03/28 00:26:59;;;;;;;5.82;1.40;;;1.30;99.90;;;;;;5022111;28;20521;-70
2023/03/28 00:29:28;;;;;;;9.43;1.58;;;1.30;99.90;;;;;;5021253;28;20036;-70
2023/03/28 00:31:59;;;;;;;7.60;1.55;;;1.30;99.90;;;;;;5026770;28;20044;-70
2023/03/28 00:34:28;;;;;;;9.32;1.80;;;1.30;99.90;;;;;;5021316;28;20044;-70
2023/03/28 00:37:01;;;;;;;8.48;1.77;;;1.30;99.90;;;;;;5029422;28;20409;-70
2023/03/28 00:39:30;;;;;;;6.68;1.60;;;1.20;99.90;;;;;;5027484;28;20056;-71
2023/03/28 00:42:07;;;;;;;9.85;2.13;;;1.20;99.90;;;;;;5026887;28;20048;-70
2023/03/28 00:44:55;;;;;;;7.18;1.45;;;1.20;99.90;;;;;;5028343;28;20109;-70
2023/03/28 00:47:57;;;;;;;5.47;1.40;;;1.20;99.90;;;;;;5028423;28;20041;-70
2023/03/28 00:50:41;;;;;;;11.32;1.90;;;1.20;99.90;;;;;;5030583;28;20038;-70
2023/03/28 00:53:23;;;;;;;8.82;1.65;;;1.20;99.90;;;;;;5025827;28;20064;-70
2023/03/28 00:56:03;;;;;;;10.77;2.00;;;1.30;99.90;;;;;;5026053;28;20080;-70
2023/03/28 00:58:40;;;;;;;12.93;1.90;;;1.30;99.90;;;;;;5023760;28;20478;-70
2023/03/28 01:01:14;;;;;;;9.95;2.00;;;1.30;99.90;;;;;;5011703;28;20031;-70
2023/03/28 01:03:53;;;;;;;10.38;2.22;;;1.20;99.90;;;;;;5017991;28;20099;-70
2023/03/28 01:06:28;;;;;;;9.90;1.92;;;1.20;99.90;;;;;;5010198;28;20034;-70
2023/03/28 01:09:07;;;;;;;12.15;1.58;;;1.20;99.90;;;;;;5021474;28;20060;-70
2023/03/28 01:11:42;;;;;;;9.73;1.67;;;1.10;99.90;;;;;;5027053;28;20033;-70
2023/03/28 01:14:19;;;;;;;15.20;2.13;;;1.10;99.90;;;;;;5027614;28;20040;-70
2023/03/28 01:16:46;;;;;;;11.73;2.15;;;1.10;99.90;;;;;;5013430;28;20025;-70
2023/03/28 01:19:27;;;;;;;14.80;1.90;;;1.10;99.90;;;;;;5023714;28;20032;-70
2023/03/28 01:22:21;;;;;;;11.10;1.55;;;1.10;99.90;;;;;;5020401;28;20045;-71
2023/03/28 01:24:58;;;;;;;15.35;1.95;;;1.10;99.90;;;;;;5025980;28;20160;-70
2023/03/28 01:27:41;;;;;;;11.13;1.90;;;1.10;99.90;;;;;;5007488;28;20017;-70
2023/03/28 01:30:26;;;;;;;12.63;2.22;;;1.00;99.90;;;;;;5014742;28;20053;-70
2023/03/28 01:33:21;;;;;;;9.27;1.75;;;1.10;99.90;;;;;;5018256;28;20045;-70
2023/03/28 01:36:15;;;;;;;13.75;1.85;;;1.10;99.90;;;;;;5024819;28;20033;-70
2023/03/28 01:39:19;;;;;;;14.10;1.92;;;1.10;99.90;;;;;;5022828;28;20591;-70
2023/03/28 01:41:49;;;;;;;;;;;1.10;99.90;;;;;;5014799;28;20045;-70
2023/03/28 01:44:30;;;;;;;14.48;2.13;;;1.10;99.90;;;;;;5024049;28;20396;-70
2023/03/28 01:47:15;;;;;;;11.77;2.03;;;1.10;99.90;;;;;;5022727;28;20457;-70
2023/03/28 01:50:04;;;;;;;11.93;1.70;;;1.10;99.90;;;;;;5025692;28;20057;-70
2023/03/28 01:52:55;;;;;;;17.38;2.25;;;1.00;99.90;;;;;;5018560;28;20052;-71
2023/03/28 01:55:47;;;;;;;14.00;2.08;;;1.00;99.90;;;;;;5027761;28;20026;-70
2023/03/28 01:58:34;;;;;;;13.63;1.90;;;1.10;99.90;;;;;;5026572;28;20029;-70
2023/03/28 02:01:21;;;;;;;11.82;2.30;;;1.10;99.90;;;;;;5027216;28;20017;-70
2023/03/28 02:04:00;;;;;;;14.15;2.65;;;1.10;99.90;;;;;;5018094;28;20037;-70
2023/03/28 02:06:33;;;;;;;13.45;2.15;;;1.10;99.90;;;;;;5028486;28;20043;-70
2023/03/28 02:09:05;;;;;;;16.95;2.15;;;1.20;99.90;;;;;;5030124;28;20025;-70
2023/03/28 02:11:34;;;;;;;11.75;1.63;;;1.20;99.90;;;;;;5024960;28;20552;-70
2023/03/28 02:14:10;;;;;;;11.27;2.05;;;1.30;99.90;;;;;;5027236;28;20040;-70
2023/03/28 02:16:44;;;;;;;19.35;2.38;;;1.40;99.90;;;;;;5026909;28;20084;-70
2023/03/28 02:19:19;;;;;;;14.00;2.05;;;1.40;99.90;;;;;;5028007;28;20049;-70
2023/03/28 02:22:00;;;;;;;13.20;2.03;;;1.40;99.90;;;;;;5018386;28;20053;-71
2023/03/28 02:24:37;;;;;;;12.75;1.98;;;1.40;99.90;;;;;;5025226;28;20120;-70
2023/03/28 02:27:09;;;;;;;13.85;2.50;;;1.40;99.90;;;;;;5029123;28;20463;-71
2023/03/28 02:29:47;;;;;;;13.23;2.17;;;1.30;99.90;;;;;;5028732;28;20033;-70
2023/03/28 02:32:24;;;;;;;11.80;2.42;;;1.30;99.90;;;;;;5024107;28;20406;-70
2023/03/28 02:34:59;;;;;;;10.77;1.92;;;1.30;99.90;;;;;;5025517;28;20101;-70
2023/03/28 02:38:06;;;;;;;14.23;2.30;;;1.40;99.90;;;;;;5020169;28;20029;-70
2023/03/28 02:40:53;;;;;;;13.23;1.80;;;1.40;99.90;;;;;;5026940;28;20030;-71
2023/03/28 02:43:33;;;;;;;17.25;2.15;;;1.40;99.90;;;;;;5028020;28;20512;-70
2023/03/28 02:46:21;;;;;;;10.30;2.17;;;1.40;99.90;;;;;;5027501;28;20731;-70
2023/03/28 02:49:14;;;;;;;10.95;2.10;;;1.50;99.90;;;;;;5010986;28;20070;-70
2023/03/28 02:51:49;;;;;;;;;;;1.50;99.90;;;;;;5024816;28;20168;-70
2023/03/28 02:54:31;;;;;;;15.20;2.38;;;1.50;99.90;;;;;;5028032;28;19909;-70
2023/03/28 04:31:28;;;;;;;21.33;3.70;;;1.50;99.90;;;;;;4993767;28;20121;-70
2023/03/28 04:33:54;;;;;;;13.50;2.55;;;1.50;99.90;;;;;;5018221;28;20041;-70
2023/03/28 04:36:21;;;;;;;20.42;2.58;;;1.50;99.90;;;;;;5011728;28;20080;-70
2023/03/28 04:38:48;;;;;;;13.75;2.17;;;1.50;99.90;;;;;;5020257;28;20533;-70
2023/03/28 04:41:22;;;;;;;19.70;2.58;;;1.50;99.90;;;;;;5022082;28;21821;-70
2023/03/28 04:43:54;;;;;;;17.60;2.33;;;1.50;99.90;;;;;;5025267;28;20034;-70
2023/03/28 04:46:28;;;;;;;14.10;3.45;;;1.50;99.90;;;;;;5020670;28;20115;-70
2023/03/28 04:49:00;;;;;;;17.60;2.63;;;1.50;99.90;;;;;;5017853;28;20037;-70
2023/03/28 04:51:29;;;;;;;9.30;2.03;;;1.50;99.90;;;;;;5012377;28;20530;-70
2023/03/28 04:54:00;;;;;;;16.48;2.20;;;1.50;99.90;;;;;;5014563;28;20041;-70
2023/03/28 04:56:35;;;;;;;18.67;2.60;;;1.50;99.90;;;;;;5017076;28;20494;-70
2023/03/28 04:59:07;;;;;;;16.15;2.63;;;1.50;99.90;;;;;;5019595;28;20036;-70
2023/03/28 05:01:40;;;;;;;19.65;2.65;;;1.50;99.90;;;;;;5023533;28;20048;-70
2023/03/28 05:04:06;;;;;;;;;;;1.50;99.90;;;;;;5018987;28;20037;-70
2023/03/28 05:06:32;;;;;;;11.82;2.40;;;1.50;99.90;;;;;;5016224;28;20369;-70
2023/03/28 05:09:04;;;;;;;20.35;3.20;;;1.40;99.90;;;;;;5027941;28;20033;-70
2023/03/28 05:11:30;;;;;;;10.70;2.88;;;1.50;99.90;;;;;;5019031;28;20034;-70
2023/03/28 05:13:56;;;;;;;20.63;2.85;;;1.50;99.90;;;;;;5027031;28;20028;-70
2023/03/28 05:16:23;;;;;;;12.90;3.15;;;1.40;99.90;;;;;;5025502;28;20029;-70
2023/03/28 05:18:48;;;;;;;16.52;3.08;;;1.40;99.90;;;;;;5026030;28;20044;-70
2023/03/28 05:21:21;;;;;;;14.95;2.88;;;1.40;99.90;;;;;;5027897;28;20033;-69
2023/03/28 05:23:47;;;;;;;14.10;2.83;;;1.40;99.90;;;;;;5024684;28;20029;-69
2023/03/28 05:26:13;;;;;;;17.35;3.53;;;1.40;99.90;;;;;;5029788;28;20029;-69
2023/03/28 05:28:39;;;;;;;19.15;4.82;;;1.40;99.90;;;;;;5030516;28;20744;-69
2023/03/28 05:31:06;;;;;;;20.75;4.88;;;1.40;99.90;;;;;;5028617;28;20521;-69
2023/03/28 05:33:32;;;;;;;19.10;5.03;;;1.30;99.90;;;;;;5026741;28;20252;-70
2023/03/28 05:35:59;;;;;;;22.48;5.00;;;1.40;99.90;;;;;;5024611;28;20047;-69
2023/03/28 05:38:26;;;;;;;21.52;4.80;;;1.30;99.90;;;;;;5023315;28;20037;-70
2023/03/28 05:40:59;;;;;;;21.10;4.40;;;1.30;99.90;;;;;;5024401;28;20056;-70
2023/03/28 05:43:30;;;;;;;15.25;3.88;;;1.20;99.90;;;;;;5020683;28;20034;-70
2023/03/28 05:45:56;;;;;;;20.50;3.58;;;1.20;99.90;;;;;;5016875;28;20033;-70
2023/03/28 05:48:22;;;;;;;12.65;3.22;;;1.20;99.90;;;;;;5008082;28;20040;-70
2023/03/28 05:50:49;;;;;;;23.20;4.05;;;1.20;99.90;;;;;;5007012;28;20030;-70
2023/03/28 05:53:15;;;;;;;19.17;3.95;;;1.20;99.90;;;;;;5018716;28;20516;-70
2023/03/28 05:55:41;;;;;;;19.33;4.57;;;1.20;99.90;;;;;;5015714;28;20052;-70
2023/03/28 05:58:08;;;;;;;16.35;3.25;;;1.30;99.90;;;;;;5024762;28;20037;-70
2023/03/28 06:00:36;;;;;;;15.10;3.30;;;1.20;99.90;;;;;;5024552;28;20025;-70
2023/03/28 06:03:07;;;;;;;16.15;4.18;;;1.20;99.90;;;;;;5012761;28;20036;-70
2023/03/28 06:05:40;;;;;;;25.50;4.35;;;1.20;99.90;;;;;;5019943;28;20095;-70
2023/03/28 06:08:08;;;;;;;21.83;3.88;;;1.30;99.90;;;;;;5022938;28;20037;-70
2023/03/28 06:10:39;;;;;;;17.20;4.05;;;1.30;99.90;;;;;;5026113;28;20033;-70
2023/03/28 06:13:04;;;;;;;23.67;4.35;;;1.30;99.90;;;;;;5024365;28;20029;-70
2023/03/28 06:15:32;;;;;;;20.15;2.97;;;1.40;99.90;;;;;;5019865;28;20083;-70
2023/03/28 06:17:58;;;;;;;14.30;2.65;;;1.40;99.90;;;;;;5022724;28;20029;-70
2023/03/28 06:20:24;;;;;;;14.40;3.33;;;1.40;99.90;;;;;;5025284;28;20080;-71
2023/03/28 06:22:50;;;;;;;12.10;2.25;;;1.40;99.90;;;;;;5020157;28;20030;-71
2023/03/28 06:25:20;;;;;;;11.25;2.60;;;1.40;99.90;;;;;;5019253;28;20037;-71
2023/03/28 06:27:46;;;;;;;13.23;2.20;;;1.50;99.90;;;;;;5025032;28;20112;-70
2023/03/28 06:30:13;;;;;;;11.65;2.30;;;1.50;99.90;;;;;;5023075;28;20129;-71
2023/03/28 06:32:39;;;;;;;13.70;2.72;;;1.50;99.90;;;;;;5018397;28;20160;-71
2023/03/28 06:35:06;;;;;;;11.73;2.72;;;1.50;99.90;;;;;;5020158;28;20064;-71
2023/03/28 06:37:32;;;;;;;10.77;2.55;;;;;;;;;;5018954;28;20437;-70
2023/03/28 06:39:58;;;;;;;10.77;2.72;;;1.60;99.90;;;;;;5019152;28;20032;-70
2023/03/28 06:42:24;;;;;;;10.23;1.85;;;1.60;99.90;;;;;;5022525;28;20022;-70
2023/03/28 06:44:50;;;;;;;9.93;1.92;;;1.60;99.90;;;;;;5021937;28;20429;-70
2023/03/28 06:47:15;;;;;;;10.85;2.38;;;1.70;99.90;;;;;;5024143;28;20306;-71
2023/03/28 06:49:44;;;;;;;16.88;2.40;;;1.70;99.90;;;;;;5023676;28;20046;-70
2023/03/28 06:52:10;;;;;;;15.25;2.92;;;1.70;99.90;;;;;;5021343;28;20037;-70
2023/03/28 06:54:39;;;;;;;12.18;2.35;;;1.80;99.90;;;;;;5022389;28;20099;-70
2023/03/28 06:57:05;;;;;;;17.10;2.40;;;1.80;99.90;;;;;;5025592;28;20524;-70
2023/03/28 06:59:31;;;;;;;16.27;3.03;;;1.80;99.90;;;;;;5027079;28;20076;-70
2023/03/28 07:01:58;;;;;;;17.42;2.80;;;1.80;99.90;;;;;;5023008;28;20506;-70
2023/03/28 07:04:25;;;;;;;12.65;2.72;;;1.90;99.90;;;;;;5020157;28;20033;-70
2023/03/28 07:06:50;;;;;;;18.25;3.70;;;1.90;99.90;;;;;;5020750;28;20517;-70
2023/03/28 07:09:20;;;;;;;12.85;2.67;;;1.90;99.90;;;;;;5020570;28;20042;-70
2023/03/28 07:11:46;;;;;;;18.08;3.22;;;2.00;99.90;;;;;;5023625;28;20029;-70
2023/03/28 07:14:12;;;;;;;14.70;2.90;;;2.10;99.90;;;;;;5020462;28;20036;-70
2023/03/28 07:16:38;;;;;;;15.05;2.80;;;2.20;99.90;;;;;;5023250;28;20107;-71
2023/03/28 07:19:04;;;;;;;11.93;2.47;;;2.30;99.90;;;;;;5024748;28;20053;-70
2023/03/28 07:21:30;;;;;;;13.52;2.15;;;2.40;99.90;;;;;;5023519;28;20029;-70
2023/03/28 07:23:56;;;;;;;10.95;2.72;;;2.50;99.90;;;;;;5020938;28;20025;-70
2023/03/28 07:26:21;;;;;;;20.13;3.20;;;2.50;99.90;;;;;;5023270;28;20033;-71
2023/03/28 07:28:48;;;;;;;18.40;3.38;;;2.60;99.90;;;;;;5024895;28;20226;-70
2023/03/28 07:31:14;;;;;;;19.58;3.05;;;2.70;99.90;;;;;;5017989;28;20064;-70
2023/03/28 07:33:41;;;;;;;13.98;2.58;;;2.80;99.90;;;;;;5022718;28;20037;-70
2023/03/28 07:36:17;;;;;;;16.10;2.22;;;2.90;99.90;;;;;;5023062;28;20119;-70
2023/03/28 07:38:43;;;;;;;24.42;3.17;;;3.00;99.90;;;;;;5024123;28;20036;-70
2023/03/28 07:41:10;;;;;;;12.23;2.63;;;3.00;99.90;;;;;;5021173;28;20117;-70
2023/03/28 07:43:38;;;;;;;22.17;2.67;;;3.10;99.90;;;;;;5020446;28;20033;-71
2023/03/28 07:46:12;;;;;;;13.25;2.35;;;3.20;99.90;;;;;;5025190;28;20214;-71
2023/03/28 07:48:41;;;;;;;16.30;2.08;;;3.20;99.90;;;;;;5025152;28;20021;-71
2023/03/28 07:51:09;;;;;;;14.30;2.28;;;3.30;99.90;;;;;;5028039;28;20449;-70
2023/03/28 07:53:37;;;;;;;17.02;2.22;;;3.30;99.90;;;;;;5020386;28;20032;-70
2023/03/28 07:56:10;;;;;;;16.05;2.75;;;3.50;99.90;;;;;;5027647;28;20060;-70
2023/03/28 07:58:38;;;;;;;;;;;3.50;99.90;;;;;;5024645;28;20163;-70
2023/03/28 08:01:09;;;;;;;19.35;2.47;;;3.70;99.90;;;;;;5018136;28;19935;-70
2023/03/28 08:03:36;;;;;;;17.08;2.50;;;3.80;99.90;;;;;;5025476;28;20508;-71
2023/03/28 08:06:09;;;;;;;16.50;2.85;;;4.00;99.90;;;;;;5012556;28;20037;-71
2023/03/28 08:08:36;;;;;;;16.00;2.40;;;4.20;99.90;;;;;;5019282;28;20025;-71
2023/03/28 08:11:06;;;;;;;10.25;2.08;;;4.40;99.90;;;;;;5018976;28;20042;-70
2023/03/28 08:13:36;;;;;;;11.95;2.10;;;4.60;99.90;;;;;;5025027;28;20109;-71
2023/03/28 08:16:07;;;;;;;14.35;2.50;;;4.80;99.90;;;;;;5028156;28;20026;-71
2023/03/28 08:18:32;;;;;;;14.95;1.85;;;5.00;99.90;;;;;;5025830;28;20025;-71
2023/03/28 08:21:08;;;;;;;13.18;1.92;;;5.10;99.90;;;;;;5020666;28;20041;-70
2023/03/28 08:23:34;;;;;;;7.22;1.80;;;5.20;99.90;;;;;;5019083;28;20030;-71
2023/03/28 08:26:08;;;;;;;7.95;1.67;;;5.10;99.90;;;;;;5025932;28;20044;-71
2023/03/28 08:28:38;;;;;;;11.00;1.80;;;5.00;99.90;;;;;;5022687;28;20026;-71
2023/03/28 08:31:12;;;;;;;17.38;1.90;;;4.90;99.90;;;;;;5024249;28;20026;-71
2023/03/28 08:33:40;;;;;;;11.07;2.45;;;5.00;99.90;;;;;;5021245;28;20057;-71
2023/03/28 08:36:08;;;;;;;8.10;1.70;;;5.00;99.90;;;;;;5020245;28;20030;-71
2023/03/28 08:38:35;;;;;;;10.38;1.77;;;4.90;99.90;;;;;;5021807;28;20478;-72
2023/03/28 08:41:34;;;;;;;15.93;2.05;;;4.80;99.90;;;;;;5018993;28;20056;-70
2023/03/28 08:44:22;;;;;;;8.27;1.60;;;4.80;99.90;;;;;;5023442;28;20030;-71
2023/03/28 08:47:12;;;;;;;13.20;2.00;;;5.10;99.90;;;;;;5026009;28;20505;-72
2023/03/28 08:50:10;;;;;;;9.32;1.75;;;5.30;99.90;;;;;;5023873;28;20022;-71
2023/03/28 08:52:43;;;;;;;10.18;1.60;;;5.50;99.90;;;;;;5015981;28;20120;-71
2023/03/28 08:55:30;;;;;;;8.52;1.60;;;5.90;99.90;;;;;;5023380;28;20091;-71
2023/03/28 08:58:02;;;;;;;9.32;1.30;;;6.20;99.90;;;;;;5023611;28;20032;-71
2023/03/28 09:00:33;;;;;;;10.80;1.45;;;6.10;99.90;;;;;;5024045;28;20037;-71
2023/03/28 09:03:08;;;;;;;10.70;1.80;;;5.90;99.90;;;;;;5024062;28;20034;-71
2023/03/28 09:05:54;;;;;;;8.63;1.40;;;5.70;99.90;;;;;;5021864;28;20052;-71
2023/03/28 09:09:10;;;;;;;8.18;1.83;;;5.90;99.90;;;;;;5018261;28;20033;-71
2023/03/28 09:12:01;;;;;;;11.05;2.22;;;6.10;99.90;;;;;;5003913;28;20533;-71
2023/03/28 09:14:47;;;;;;;6.78;1.38;;;6.10;99.90;;;;;;5022334;28;20056;-71
2023/03/28 09:17:53;;;;;;;7.50;1.67;;;6.00;99.90;;;;;;5024429;28;20490;-71
2023/03/28 09:20:38;;;;;;;9.52;1.73;;;5.90;99.90;;;;;;5018882;28;21599;-71
2023/03/28 09:23:26;;;;;;;9.82;1.80;;;5.90;99.90;;;;;;5019533;28;20041;-71
2023/03/28 09:26:26;;;;;;;10.10;1.83;;;6.20;99.90;;;;;;5016993;28;20037;-71
2023/03/28 09:29:23;;;;;;;7.63;1.63;;;6.50;99.90;;;;;;5013112;28;20041;-71
2023/03/28 09:31:58;;;;;;;9.65;1.90;;;6.70;99.90;;;;;;5022337;28;20033;-71
2023/03/28 09:34:34;;;;;;;10.10;1.92;;;6.60;99.90;;;;;;5016980;28;20021;-70
2023/03/28 09:37:27;;;;;;;7.88;1.83;;;6.50;99.90;;;;;;5022804;28;20017;-71
2023/03/28 09:40:11;;;;;;;6.00;1.67;;;6.40;99.90;;;;;;5020897;28;20082;-71
2023/03/28 09:42:52;;;;;;;5.88;1.58;;;6.30;99.90;;;;;;5022353;28;20113;-71
2023/03/28 09:45:46;;;;;;;8.95;1.52;;;6.20;99.90;;;;;;5024168;28;20041;-71
2023/03/28 09:48:23;;;;;;;7.45;1.63;;;6.20;99.90;;;;;;5020435;28;20032;-71
2023/03/28 09:50:51;;;;;;;5.95;1.70;;;6.10;99.90;;;;;;5025905;28;20025;-71
2023/03/28 09:53:28;;;;;;;7.50;1.45;;;6.10;99.90;;;;;;5020004;28;20049;-71
2023/03/28 09:56:04;;;;;;;8.10;1.63;;;6.60;99.90;;;;;;5016625;28;20057;-71
2023/03/28 09:58:52;;;;;;;5.13;1.50;;;7.00;99.90;;;;;;5023209;28;20044;-72
2023/03/28 10:01:35;;;;;;;3.97;1.20;;;7.20;99.90;;;;;;5018093;28;20048;-72
2023/03/28 10:04:11;;;;;;;;;;;7.20;99.90;;;;;;5022298;28;20128;-71
2023/03/28 10:06:47;;;;;;;9.38;1.70;;;7.10;99.90;;;;;;5021342;28;19996;-71
2023/03/28 10:09:34;;;;;;;10.68;1.80;;;7.00;99.90;;;;;;5019704;28;20116;-71
2023/03/28 10:12:10;;;;;;;10.52;1.80;;;6.80;99.90;;;;;;5016535;28;20149;-71
2023/03/28 10:14:45;;;;;;;5.25;1.50;;;6.80;99.90;;;;;;5025349;28;20025;-71
2023/03/28 10:17:20;;;;;;;9.10;1.65;;;7.00;99.90;;;;;;5026318;28;20045;-71
2023/03/28 10:19:51;;;;;;;9.60;1.77;;;7.50;99.90;;;;;;5021339;28;20026;-71
2023/03/28 10:22:35;;;;;;;5.97;1.33;;;7.60;99.90;;;;;;5020013;28;20282;-71
2023/03/28 10:25:09;;;;;;;10.00;1.85;;;7.60;99.90;;;;;;5025106;28;20048;-72
2023/03/28 10:27:41;;;;;;;8.80;1.60;;;7.50;99.90;;;;;;5017780;28;20049;-71
2023/03/28 10:30:28;;;;;;;6.70;2.15;;;7.40;99.90;;;;;;5020616;28;20538;-71
2023/03/28 10:33:16;;;;;;;3.88;1.52;;;7.30;99.90;;;;;;5019077;28;20050;-71
2023/03/28 10:35:46;;;;;;;9.27;2.50;;;7.30;99.90;;;;;;5018330;28;20041;-71
2023/03/28 10:38:18;;;;;;;9.32;3.15;;;7.50;99.90;;;;;;5011095;28;20117;-71
2023/03/28 10:41:06;;;;;;;10.75;1.95;;;7.60;99.90;;;;;;5023389;28;20025;-72
2023/03/28 10:43:40;;;;;;;6.75;1.40;;;8.00;99.90;;;;;;5024312;28;20046;-71
2023/03/28 10:46:14;;;;;;;8.82;1.80;;;8.20;99.90;;;;;;5023917;28;20527;-71
2023/03/28 10:48:52;;;;;;;6.18;1.90;;;8.60;99.90;;;;;;5008408;28;20029;-71
2023/03/28 10:51:23;;;;;;;5.05;1.40;;;8.80;99.90;;;;;;5018250;28;20485;-71
2023/03/28 10:54:25;;;;;;;3.72;1.10;;;9.00;99.90;;;;;;5008149;28;20086;-71
2023/03/28 10:57:21;;;;;;;9.70;2.60;;;9.40;98.70;;;;;;5011772;28;20129;-71
2023/03/28 11:00:11;;;;;;;7.78;2.33;;;9.70;99.90;;;;;;5020700;28;20029;-71
2023/03/28 11:03:13;;;;;;;8.30;1.52;;;9.80;98.90;;;;;;5018236;28;20545;-71
2023/03/28 11:05:50;;;;;;;7.47;2.28;;;10.10;98.80;;;;;;5021532;28;20091;-71
2023/03/28 11:08:35;;;;;;;5.97;1.45;;;10.00;99.40;;;;;;5014300;28;20038;-71
2023/03/28 11:11:39;;;;;;;8.25;2.20;;;9.70;95.80;;;;;;5013701;28;20041;-71
2023/03/28 11:14:44;;;;;;;3.63;1.05;;;9.50;95.70;;;;;;5017965;28;20040;-71
2023/03/28 11:17:30;;;;;;;7.97;1.67;;;9.20;95.80;;;;;;5017075;28;20113;-71
2023/03/28 11:20:07;;;;;;;7.68;1.75;;;9.00;95.60;;;;;;5018542;28;20017;-71
2023/03/28 11:22:59;;;;;;;4.78;1.23;;;8.80;97.00;;;;;;5024718;28;20192;-71
2023/03/28 11:25:54;;;;;;;9.45;2.17;;;8.70;96.00;;;;;;5011780;28;20037;-71
2023/03/28 11:28:27;;;;;;;6.43;1.48;;;8.60;94.60;;;;;;5022651;28;20056;-71
2023/03/28 11:30:57;;;;;;;10.75;4.45;;;8.50;94.90;;;;;;5013919;28;20033;-71
2023/03/28 11:33:46;;;;;;;10.85;4.43;;;8.50;95.60;;;;;;5023219;28;20095;-71
2023/03/28 11:36:20;;;;;;;6.15;1.70;;;8.80;95.60;;;;;;5022893;28;20017;-71
2023/03/28 11:38:59;;;;;;;9.82;2.03;;;9.00;94.80;;;;;;5023817;28;20033;-71
2023/03/28 11:41:35;;;;;;;4.70;1.25;;;9.00;94.40;;;;;;5022362;28;20107;-71
2023/03/28 11:44:09;;;;;;;8.27;3.50;;;8.90;94.40;;;;;;5013915;28;20033;-71
2023/03/28 11:46:49;;;;;;;14.52;7.28;;;8.80;95.40;;;;;;5021405;28;20034;-71
2023/03/28 11:49:17;;;;;;;11.60;3.83;;;8.80;94.90;;;;;;5022571;28;20030;-71
2023/03/28 11:52:06;;;;;;;8.57;2.80;;;8.90;95.80;;;;;;5020545;28;20088;-71
2023/03/28 11:54:44;;;;;;;9.10;1.70;;;9.00;97.50;;;;;;5025016;28;20056;-71
2023/03/28 11:57:27;;;;;;;6.50;1.70;;;9.00;95.10;;;;;;5023163;28;20026;-71
2023/03/28 12:00:17;;;;;;;7.30;2.80;;;8.90;96.30;;;;;;5013597;28;20281;-71
2023/03/28 12:03:00;;;;;;;11.13;3.42;;;9.10;96.90;;;;;;5019968;28;22224;-71
2023/03/28 12:05:37;;;;;;;;;;;9.00;96.30;;;;;;5022983;28;20037;-72
2023/03/28 12:08:09;;;;;;;7.53;1.75;;;8.80;97.00;;;;;;5012391;28;19913;-73
2023/03/28 12:10:44;;;;;;;9.18;2.50;;;8.80;95.70;;;;;;5018850;28;20028;-72
2023/03/28 12:13:37;;;;;;;9.02;1.75;;;8.70;98.10;;;;;;5017658;28;20040;-73
2023/03/28 12:16:12;;;;;;;20.23;3.85;;;8.60;96.80;;;;;;5026984;28;20506;-74
2023/03/28 12:18:40;;;;;;;7.25;2.22;;;;;;;;;;5020316;28;20494;-71
2023/03/28 12:21:33;;;;;;;7.05;2.13;;;8.50;96.70;;;;;;5018521;28;20088;-71
2023/03/28 12:24:22;;;;;;;8.00;1.80;;;8.60;97.30;;;;;;5016864;28;20029;-71
2023/03/28 12:27:13;;;;;;;7.85;1.85;;;8.60;98.30;;;;;;5016796;28;20307;-72
2023/03/28 12:30:05;;;;;;;9.95;4.60;;;8.70;97.80;;;;;;4319062;28;10001202;-71
2023/03/28 12:32:51;;;;;;;7.63;2.00;;;8.80;96.80;;;;;;5016366;28;20541;-72
2023/03/28 12:35:40;;;;;;;9.43;1.80;;;8.80;97.30;;;;;;5011337;28;20043;-72
2023/03/28 12:38:31;;;;;;;7.82;1.73;;;8.90;96.00;;;;;;5008316;28;20607;-71
2023/03/28 12:41:14;;;;;;;6.18;1.75;;;8.90;96.10;;;;;;5016261;28;20445;-72
2023/03/28 12:43:53;;;;;;;;;;;8.90;94.70;;;;;;5007161;28;20075;-72
2023/03/28 12:46:33;;;;;;;8.43;1.55;;;8.90;95.30;;;;;;5010898;28;19913;-72
2023/03/28 12:49:32;;;;;;;6.38;2.28;;;9.00;94.70;;;;;;5007453;28;20037;-72
2023/03/28 12:52:02;;;;;;;5.22;1.48;;;9.00;93.70;;;;;;4997652;28;20042;-72
2023/03/28 12:54:32;;;;;;;9.18;4.82;;;9.00;93.30;;;;;;5017287;28;20448;-72
2023/03/28 12:57:08;;;;;;;12.27;3.33;;;9.00;96.10;;;;;;5013530;28;20029;-71
2023/03/28 12:59:37;;;;;;;12.85;4.82;;;9.00;95.80;;;;;;5010243;28;20048;-72
2023/03/28 13:02:16;;;;;;;9.63;2.08;;;9.10;97.10;;;;;;5020844;28;20041;-72
2023/03/28 13:05:00;;;;;;;9.52;3.03;;;9.20;97.20;;;;;;5024038;28;20438;-72
2023/03/28 13:07:46;;;;;;;7.05;2.20;;;9.20;96.30;;;;;;5016465;28;20725;-71
2023/03/28 13:10:24;;;;;;;7.90;2.00;;;9.00;96.20;;;;;;5021011;28;20363;-71
2023/03/28 13:13:27;;;;;;;8.32;2.50;;;9.10;97.30;;;;;;5011011;28;20041;-72
2023/03/28 13:16:05;;;;;;;10.13;2.37;;;9.10;96.80;;;;;;5021622;28;20029;-71
2023/03/28 13:18:35;;;;;;;5.13;2.10;;;9.20;98.80;;;;;;5017595;28;20033;-71
2023/03/28 13:21:04;;;;;;;8.07;2.35;;;9.40;97.90;;;;;;5019530;28;20029;-70
2023/03/28 13:23:36;;;;;;;8.15;1.92;;;9.40;95.70;;;;;;5016538;28;20429;-72
2023/03/28 13:26:08;;;;;;;9.80;2.10;;;9.40;96.70;;;;;;5016977;28;20049;-72
2023/03/28 13:28:52;;;;;;;8.35;1.90;;;;;;;;;;5015069;28;20037;-71
2023/03/28 13:31:24;;;;;;;6.32;2.13;;;9.70;97.10;;;;;;5008869;28;20155;-71
2023/03/28 13:34:02;;;;;;;4.88;1.63;;;9.70;96.60;;;;;;5018252;28;20032;-73
2023/03/28 13:36:35;;;;;;;5.00;1.80;;;9.70;97.10;;;;;;5019984;28;20052;-72
2023/03/28 13:39:08;;;;;;;6.05;1.75;;;9.60;95.00;;;;;;5018730;28;20099;-73
2023/03/28 13:41:43;;;;;;;;;;;9.70;96.80;;;;;;5019406;28;20054;-72
2023/03/28 13:44:14;;;;;;;10.50;2.42;;;9.70;95.90;;;;;;5015806;28;20388;-72
2023/03/28 13:46:51;;;;;;;9.23;2.03;;;9.70;96.90;;;;;;5017773;28;20038;-72
2023/03/28 13:49:29;;;;;;;8.80;2.17;;;9.70;96.50;;;;;;5018527;28;20441;-71
2023/03/28 13:52:05;;;;;;;8.57;2.58;;;9.70;95.80;;;;;;5012235;28;20034;-72
2023/03/28 13:54:33;;;;;;;10.43;2.65;;;9.70;95.70;;;;;;5023629;28;20029;-72
2023/03/28 13:57:25;;;;;;;6.78;2.35;;;9.60;94.60;;;;;;5018866;28;20485;-72
2023/03/28 13:59:59;;;;;;;4.40;2.60;;;9.60;95.80;;;;;;5021644;28;20400;-71
2023/03/28 14:02:40;;;;;;;9.15;4.22;;;9.60;95.90;;;;;;5013744;28;20486;-71
2023/03/28 14:05:20;;;;;;;9.35;3.60;;;9.70;97.80;;;;;;5020617;28;20456;-71
2023/03/28 14:07:46;;;;;;;8.25;3.20;;;9.70;95.80;;;;;;5016603;28;20060;-71
2023/03/28 14:10:34;;;;;;;6.00;2.35;;;;;;;;;;5017671;28;20452;-71
2023/03/28 14:13:06;;;;;;;10.40;3.30;;;10.10;93.10;;;;;;5016076;28;20051;-71
2023/03/28 14:15:35;;;;;;;6.75;3.08;;;;;;;;;;5015437;28;20030;-71
2023/03/28 14:18:01;;;;;;;6.28;2.63;;;;;;;;;;5014471;28;20033;-71
2023/03/28 14:20:29;;;;;;;11.85;5.40;;;;;;;;;;5020926;28;20830;-71
2023/03/28 14:22:58;;;;;;;5.03;2.85;;;;;;;;;;5013088;28;20029;-71
2023/03/28 14:25:24;;;;;;;13.85;4.70;;;;;;;;;;5013765;28;20120;-71
2023/03/28 14:27:54;;;;;;;6.55;2.60;;;;;;;;;;5019225;28;20041;-71
2023/03/28 14:30:22;;;;;;;5.75;3.03;;;;;;;;;;5016525;28;20418;-71
2023/03/28 14:32:53;;;;;;;7.82;2.85;;;;;;;;;;5016057;28;20525;-71
2023/03/28 14:35:23;;;;;;;9.13;2.50;;;;;;;;;;5014247;28;20034;-72
2023/03/28 14:37:53;;;;;;;13.80;2.88;;;;;;;;;;5017937;28;20053;-72
2023/03/28 14:40:22;;;;;;;9.27;4.18;;;;;;;;;;5018872;28;20112;-71
2023/03/28 14:42:54;;;;;;;7.97;3.78;;;;;;;;;;5024624;28;20421;-71
2023/03/28 14:45:21;;;;;;;6.55;2.92;;;;;;;;;;5014756;28;20501;-72
2023/03/28 14:47:49;;;;;;;7.32;2.38;;;;;;;;;;5006019;28;20088;-72
2023/03/28 14:50:16;;;;;;;5.25;2.17;;;;;;;;;;5021834;28;20022;-71
2023/03/28 14:52:43;;;;;;;8.55;2.47;;;;;;;;;;5015020;28;20040;-71
2023/03/28 14:55:28;;;;;;;8.18;2.90;;;;;;;;;;5027409;28;20025;-71
2023/03/28 14:58:01;;;;;;;7.50;2.33;;;;;;;;;;5027036;28;20025;-70
2023/03/28 15:00:37;;;;;;;6.32;2.42;;;9.40;92.60;;;;;;5020571;28;20029;-71
2023/03/28 15:03:07;;;;;;;7.43;2.88;;;9.30;94.10;;;;;;5027019;28;20613;-71
2023/03/28 15:05:37;;;;;;;9.18;2.97;;;9.10;93.60;;;;;;5025288;28;20036;-72
2023/03/28 15:08:29;;;;;;;8.75;2.47;;;9.10;95.00;;;;;;5025838;28;20037;-71
2023/03/28 15:11:02;;;;;;;5.63;2.47;;;9.10;94.90;;;;;;5028447;28;20052;-71
2023/03/28 15:13:39;;;;;;;8.83;3.33;;;9.10;94.00;;;;;;5023228;28;20102;-71
2023/03/28 15:16:14;;;;;;;8.00;3.63;;;9.10;94.20;;;;;;5025027;28;20367;-72
2023/03/28 15:18:52;;;;;;;12.00;5.35;;;9.20;94.60;;;;;;5029535;28;20045;-71
2023/03/28 15:21:22;;;;;;;14.10;5.93;;;9.20;95.80;;;;;;5029396;28;20029;-71